createdAt,value
2022-08-03T00:03:23.163Z,100953.69
2022-08-03T00:08:24.747Z,100949.59
2022-08-03T00:13:26.332Z,100938.03
2022-08-03T00:18:27.851Z,100937.88
2022-08-03T00:23:50.845Z,100943.63
2022-08-03T00:28:51.196Z,100935.16
2022-08-03T00:33:58.982Z,100944.06
2022-08-03T00:39:01.871Z,100935.03
2022-08-03T00:44:03.490Z,100941.03
2022-08-03T00:49:05.106Z,100933.34
2022-08-03T00:54:06.635Z,100931.66
2022-08-03T00:59:09.922Z,100915.19
2022-08-03T01:04:11.430Z,100917.00
2022-08-03T01:09:20.882Z,100917.38
2022-08-03T01:14:30.480Z,100914.91
2022-08-03T01:19:42.892Z,100901.91
2022-08-03T01:24:53.016Z,100903.28
2022-08-03T01:30:10.914Z,100912.97
2022-08-03T01:35:15.721Z,100907.13
2022-08-03T01:40:17.528Z,100905.41
2022-08-03T01:45:18.993Z,100898.81
2022-08-03T01:50:24.937Z,100897.53
2022-08-03T01:55:28.261Z,100890.97
2022-08-03T02:00:30.061Z,100888.91
2022-08-03T02:05:31.594Z,100884.31
2022-08-03T02:10:34.734Z,100881.06
2022-08-03T02:15:37.725Z,100883.31
2022-08-03T02:20:39.171Z,100888.19
2022-08-03T02:25:43.185Z,100877.59
2022-08-03T02:30:46.401Z,100869.72
2022-08-03T02:35:55.523Z,100858.44
2022-08-03T02:40:57.412Z,100861.03
2022-08-03T02:45:58.939Z,100856.88
2022-08-03T02:51:01.488Z,100854.22
2022-08-03T02:56:03.021Z,100845.00
2022-08-03T03:01:04.610Z,100836.63
2022-08-03T03:06:06.683Z,100837.47
2022-08-03T03:11:08.211Z,100835.03
2022-08-03T03:16:09.796Z,100835.03
2022-08-03T03:21:11.367Z,100842.81
2022-08-03T03:26:14.199Z,100841.91
2022-08-03T03:31:15.730Z,100836.06
2022-08-03T03:36:18.469Z,100848.78
2022-08-03T03:41:20.005Z,100845.53
2022-08-03T03:46:22.275Z,100845.47
2022-08-03T03:51:23.798Z,100835.69
2022-08-03T03:56:25.443Z,100833.81
2022-08-03T04:01:27.339Z,100837.91
2022-08-03T04:06:47.240Z,100842.97
2022-08-03T04:11:52.956Z,100847.88
2022-08-03T04:16:59.134Z,100830.44
2022-08-03T04:22:03.294Z,100841.69
2022-08-03T04:27:05.378Z,100829.81
2022-08-03T04:32:06.899Z,100832.53
2022-08-03T04:37:14.607Z,100843.25
2022-08-03T04:42:16.115Z,100842.06
2022-08-03T04:47:17.621Z,100853.16
2022-08-03T04:52:19.159Z,100849.75
2022-08-03T04:57:23.098Z,100861.69
2022-08-03T05:02:25.191Z,100867.22
2022-08-03T05:07:34.147Z,100857.47
2022-08-03T05:12:37.566Z,100855.72
2022-08-03T05:17:40.171Z,100860.34
2022-08-03T05:22:41.727Z,100869.84
2022-08-03T05:27:43.242Z,100866.31
2022-08-03T05:32:44.762Z,100857.66
2022-08-03T05:37:54.498Z,100871.38
2022-08-03T05:42:57.015Z,100875.84
2022-08-03T05:47:59.556Z,100869.03
2022-08-03T05:53:01.110Z,100884.84
2022-08-03T05:58:03.849Z,100877.78
2022-08-03T06:03:05.410Z,100874.47
2022-08-03T06:08:06.966Z,100878.88
2022-08-03T06:13:08.498Z,100877.75
2022-08-03T06:18:10.006Z,100880.34
2022-08-03T06:23:15.968Z,100881.38
2022-08-03T06:28:51.204Z,100887.38
2022-08-03T06:34:30.461Z,100895.50
2022-08-03T06:39:02.163Z,100894.97
2022-08-03T06:44:04.542Z,100888.25
2022-08-03T06:49:07.113Z,100898.75
2022-08-03T06:54:08.662Z,100900.16
2022-08-03T06:59:10.186Z,100904.88
2022-08-03T07:04:31.693Z,100902.06
2022-08-03T07:09:33.207Z,100898.84
2022-08-03T07:14:35.066Z,100895.78
2022-08-03T07:19:36.631Z,100899.16
2022-08-03T07:24:38.558Z,100906.22
2022-08-03T07:29:39.945Z,100909.84
2022-08-03T07:34:41.471Z,100910.94
2022-08-03T07:39:42.851Z,100916.22
2022-08-03T07:44:44.367Z,100913.50
2022-08-03T07:49:45.861Z,100916.25
2022-08-03T07:54:47.395Z,100918.63
2022-08-03T08:00:01.329Z,100925.41
2022-08-03T08:05:05.926Z,100912.91
2022-08-03T08:10:08.736Z,100906.44
2022-08-03T08:15:10.340Z,100917.69
2022-08-03T08:20:12.668Z,100921.25
2022-08-03T08:25:14.228Z,100924.34
2022-08-03T08:30:21.843Z,100932.72
2022-08-03T08:35:23.401Z,100932.41
2022-08-03T08:40:24.928Z,100932.09
2022-08-03T08:45:26.663Z,100934.72
2022-08-03T08:50:28.446Z,100945.38
2022-08-03T08:55:30.213Z,100956.00
2022-08-03T09:00:51.750Z,100954.94
2022-08-03T09:05:56.079Z,100952.91
2022-08-03T09:10:58.009Z,100947.84
2022-08-03T09:16:18.702Z,100948.59
2022-08-03T09:21:35.272Z,100951.31
2022-08-03T09:26:37.279Z,100953.00
2022-08-03T09:31:43.771Z,100947.03
2022-08-03T09:36:49.433Z,100948.78
2022-08-03T09:42:14.900Z,100957.47
2022-08-03T09:47:28.402Z,100953.69
2022-08-03T09:52:49.169Z,100943.59
2022-08-03T09:57:51.826Z,100949.19
2022-08-03T10:02:53.344Z,100960.16
2022-08-03T10:07:54.863Z,100959.47
2022-08-03T10:12:57.192Z,100954.94
2022-08-03T10:17:58.716Z,100949.16
2022-08-03T10:23:00.235Z,100968.47
2022-08-03T10:28:04.280Z,100970.31
2022-08-03T10:33:10.875Z,100961.31
2022-08-03T10:38:43.396Z,100956.69
2022-08-03T10:43:56.624Z,100958.28
2022-08-03T10:48:58.202Z,100959.28
2022-08-03T10:54:01.554Z,100963.91
2022-08-03T10:59:03.833Z,100954.78
2022-08-03T11:04:10.218Z,100971.78
2022-08-03T11:09:13.861Z,100973.63
2022-08-03T11:14:17.554Z,100961.75
2022-08-03T11:19:22.519Z,100963.47
2022-08-03T11:24:51.292Z,100962.81
2022-08-03T11:30:11.686Z,100966.94
2022-08-03T11:35:13.736Z,100955.72
2022-08-03T11:40:40.025Z,100969.22
2022-08-03T11:45:47.958Z,100967.09
2022-08-03T11:50:49.785Z,100962.06
2022-08-03T11:55:53.192Z,100966.47
2022-08-03T12:01:04.033Z,100965.50
2022-08-03T12:06:09.232Z,100965.34
2022-08-03T12:11:12.219Z,100967.97
2022-08-03T12:16:20.283Z,100970.44
2022-08-03T12:21:24.642Z,100982.00
2022-08-03T12:26:26.322Z,100978.25
2022-08-03T12:31:27.887Z,100975.91
2022-08-03T12:36:31.766Z,100966.81
2022-08-03T12:41:35.089Z,100962.84
2022-08-03T12:46:38.012Z,100955.22
2022-08-03T12:51:42.213Z,100959.84
2022-08-03T12:56:59.625Z,100955.94
2022-08-03T13:02:01.247Z,100966.78
2022-08-03T13:07:17.966Z,100969.47
2022-08-03T13:12:23.707Z,100987.69
2022-08-03T13:17:25.502Z,100985.72
2022-08-03T13:22:28.938Z,100987.72
2022-08-03T13:28:03.893Z,100998.25
2022-08-03T13:32:52.136Z,101007.19
2022-08-03T13:37:53.691Z,101004.50
2022-08-03T13:42:55.296Z,101009.75
2022-08-03T13:47:56.838Z,100999.59
2022-08-03T13:52:58.425Z,100994.03
2022-08-03T13:58:03.677Z,100998.22
2022-08-03T14:03:14.205Z,101011.75
2022-08-03T14:08:16.150Z,101001.03
2022-08-03T14:13:18.349Z,101005.41
2022-08-03T14:18:27.951Z,100999.22
2022-08-03T14:23:35.299Z,101007.91
2022-08-03T14:28:36.855Z,101000.03
2022-08-03T14:33:38.444Z,101001.72
2022-08-03T14:38:39.996Z,101011.38
2022-08-03T14:43:41.513Z,101021.94
2022-08-03T14:50:39.031Z,101011.56
2022-08-03T14:54:24.583Z,101013.88
2022-08-03T14:59:26.173Z,101009.19
2022-08-03T15:04:27.692Z,101007.13
2022-08-03T15:09:29.263Z,101004.50
2022-08-03T15:14:33.160Z,101000.47
2022-08-03T15:20:03.403Z,101004.94
2022-08-03T15:24:56.661Z,100997.69
2022-08-03T15:30:05.278Z,101006.97
2022-08-03T15:35:11.306Z,101011.38
2022-08-03T15:40:12.967Z,101006.22
2022-08-03T15:45:14.472Z,101004.38
2022-08-03T15:50:19.408Z,101003.38
2022-08-03T15:55:20.935Z,100997.75
2022-08-03T16:00:33.404Z,100995.84
2022-08-03T16:05:35.453Z,101002.97
2022-08-03T16:10:36.980Z,100997.66
2022-08-03T16:15:39.097Z,100998.53
2022-08-03T16:20:41.721Z,101002.63
2022-08-03T16:25:49.386Z,101001.56
2022-08-03T16:30:51.055Z,101006.44
2022-08-03T16:35:52.430Z,100998.09
2022-08-03T16:40:53.960Z,100995.13
2022-08-03T16:45:55.389Z,101004.78
2022-08-03T16:50:56.909Z,101003.84
2022-08-03T16:55:58.490Z,101002.03
2022-08-03T17:00:59.890Z,101004.53
2022-08-03T17:06:01.805Z,101004.81
2022-08-03T17:11:03.220Z,101009.72
2022-08-03T17:16:04.902Z,101009.16
2022-08-03T17:21:09.483Z,101008.44
2022-08-03T17:26:21.204Z,101010.13
2022-08-03T17:31:31.713Z,101010.28
2022-08-03T17:37:02.255Z,101006.19
2022-08-03T17:41:56.750Z,101019.22
2022-08-03T17:46:59.734Z,101016.72
2022-08-03T17:52:17.479Z,101015.34
2022-08-03T17:57:27.405Z,101017.53
2022-08-03T18:03:18.481Z,101030.72
2022-08-03T18:08:36.371Z,101026.84
2022-08-03T18:13:57.679Z,101033.50
2022-08-03T18:19:00.121Z,101040.25
2022-08-03T18:24:10.996Z,101021.03
2022-08-03T18:29:12.673Z,101026.19
2022-08-03T18:34:33.282Z,101031.19
2022-08-03T18:39:49.816Z,101039.28
2022-08-03T18:44:54.095Z,101042.41
2022-08-03T18:50:09.003Z,101035.53
2022-08-03T18:55:33.380Z,101026.59
2022-08-03T19:00:54.208Z,101026.34
2022-08-03T19:06:13.374Z,101033.59
2022-08-03T19:12:12.431Z,101046.00
2022-08-03T19:17:21.202Z,101044.19
2022-08-03T19:22:27.111Z,101038.19
2022-08-03T19:27:29.786Z,101033.00
2022-08-03T19:32:32.201Z,101036.22
2022-08-03T19:37:39.963Z,101040.81
2022-08-03T19:43:00.988Z,101039.97
2022-08-03T19:48:09.975Z,101036.41
2022-08-03T19:53:12.277Z,101044.31
2022-08-03T19:58:17.498Z,101042.41
2022-08-03T20:03:23.329Z,101040.59
2022-08-03T20:08:29.361Z,101041.25
2022-08-03T20:13:30.880Z,101044.44
2022-08-03T20:18:40.694Z,101045.28
2022-08-03T20:24:02.746Z,101037.47
2022-08-03T20:29:09.940Z,101041.94
2022-08-03T20:34:11.830Z,101042.81
2022-08-03T20:39:19.224Z,101045.22
2022-08-03T20:44:25.947Z,101051.34
2022-08-03T20:49:27.701Z,101043.16
2022-08-03T20:54:31.634Z,101049.75
2022-08-03T20:59:47.383Z,101046.25
2022-08-03T21:04:52.842Z,101061.75
2022-08-03T21:09:57.156Z,101056.38
2022-08-03T21:15:06.248Z,101049.25
2022-08-03T21:20:08.982Z,101058.97
2022-08-03T21:25:10.659Z,101051.16
2022-08-03T21:30:12.558Z,101046.16
2022-08-03T21:35:14.342Z,101031.16
2022-08-03T21:40:16.047Z,101027.53
2022-08-03T21:45:17.926Z,101036.75
2022-08-03T21:50:19.564Z,101037.00
2022-08-03T21:55:21.295Z,101026.94
2022-08-03T22:00:23.286Z,101012.41
2022-08-03T22:05:28.971Z,101014.16
2022-08-03T22:10:44.838Z,101016.50
2022-08-03T22:15:47.679Z,101021.06
2022-08-03T22:20:52.103Z,101020.38
2022-08-03T22:25:53.647Z,101012.13
2022-08-03T22:30:55.155Z,101010.44
2022-08-03T22:35:57.451Z,101007.81
2022-08-03T22:40:59.041Z,101004.31
2022-08-03T22:46:09.554Z,101001.91
2022-08-03T22:51:14.247Z,101005.16
2022-08-03T22:56:15.759Z,101001.78
2022-08-03T23:01:18.696Z,101000.41
2022-08-03T23:06:20.255Z,100996.41
2022-08-03T23:11:21.793Z,100982.81
2022-08-03T23:16:28.910Z,100992.97
2022-08-03T23:21:53.289Z,100996.72
2022-08-03T23:26:52.929Z,100994.38
2022-08-03T23:31:54.971Z,100987.47
2022-08-03T23:36:56.490Z,100977.09
2022-08-03T23:41:58.300Z,100978.50
2022-08-03T23:47:00.688Z,100973.03
2022-08-03T23:52:15.550Z,100979.03
2022-08-03T23:57:37.821Z,100968.00
